sensor_id;sensor_type;location;lat;lon;timestamp;temperature;humidity
32215;DHT22;18708;53.124;23.190;2023-04-25T00:01:22;11.90;1.00
32215;DHT22;18708;53.124;23.190;2023-04-25T00:03:48;11.90;1.00
32215;DHT22;18708;53.124;23.190;2023-04-25T00:06:14;11.80;1.00
32215;DHT22;18708;53.124;23.190;2023-04-25T00:08:40;11.70;1.00
32215;DHT22;18708;53.124;23.190;2023-04-25T00:11:06;11.60;1.00
32215;DHT22;18708;53.124;23.190;2023-04-25T00:13:31;11.50;1.00
32215;DHT22;18708;53.124;23.190;2023-04-25T00:15:59;11.40;1.00
32215;DHT22;18708;53.124;23.190;2023-04-25T00:18:25;11.30;1.00
32215;DHT22;18708;53.124;23.190;2023-04-25T00:20:54;11.30;1.00
32215;DHT22;18708;53.124;23.190;2023-04-25T00:23:21;11.20;1.00
32215;DHT22;18708;53.124;23.190;2023-04-25T00:25:49;11.20;1.00
32215;DHT22;18708;53.124;23.190;2023-04-25T00:28:17;11.10;1.00
32215;DHT22;18708;53.124;23.190;2023-04-25T00:30:43;11.10;1.00
32215;DHT22;18708;53.124;23.190;2023-04-25T00:33:09;11.10;1.00
32215;DHT22;18708;53.124;23.190;2023-04-25T00:35:35;10.90;1.00
32215;DHT22;18708;53.124;23.190;2023-04-25T00:38:02;11.00;1.00
32215;DHT22;18708;53.124;23.190;2023-04-25T00:40:28;10.90;1.00
32215;DHT22;18708;53.124;23.190;2023-04-25T00:42:54;10.80;1.00
32215;DHT22;18708;53.124;23.190;2023-04-25T00:45:20;10.60;1.00
32215;DHT22;18708;53.124;23.190;2023-04-25T00:47:48;10.60;1.00
32215;DHT22;18708;53.124;23.190;2023-04-25T00:50:14;10.50;1.00
32215;DHT22;18708;53.124;23.190;2023-04-25T00:52:43;10.40;1.00
32215;DHT22;18708;53.124;23.190;2023-04-25T00:55:12;10.40;1.00
32215;DHT22;18708;53.124;23.190;2023-04-25T00:57:38;10.30;1.00
32215;DHT22;18708;53.124;23.190;2023-04-25T01:00:08;10.20;1.00
32215;DHT22;18708;53.124;23.190;2023-04-25T01:02:35;10.20;1.00
32215;DHT22;18708;53.124;23.190;2023-04-25T01:05:02;10.10;1.00
32215;DHT22;18708;53.124;23.190;2023-04-25T01:07:28;10.10;1.00
32215;DHT22;18708;53.124;23.190;2023-04-25T01:09:54;10.00;1.00
32215;DHT22;18708;53.124;23.190;2023-04-25T01:12:20;9.90;23.80
32215;DHT22;18708;53.124;23.190;2023-04-25T01:14:46;9.90;99.90
32215;DHT22;18708;53.124;23.190;2023-04-25T01:17:12;9.90;99.90
32215;DHT22;18708;53.124;23.190;2023-04-25T01:19:38;9.80;99.90
32215;DHT22;18708;53.124;23.190;2023-04-25T01:22:04;9.80;99.90
32215;DHT22;18708;53.124;23.190;2023-04-25T01:24:33;9.80;99.90
32215;DHT22;18708;53.124;23.190;2023-04-25T01:27:00;9.70;1.00
32215;DHT22;18708;53.124;23.190;2023-04-25T01:29:27;9.70;1.00
32215;DHT22;18708;53.124;23.190;2023-04-25T01:31:53;9.70;1.00
32215;DHT22;18708;53.124;23.190;2023-04-25T01:34:19;9.60;1.00
32215;DHT22;18708;53.124;23.190;2023-04-25T01:36:48;9.60;1.00
32215;DHT22;18708;53.124;23.190;2023-04-25T01:39:15;9.50;1.00
32215;DHT22;18708;53.124;23.190;2023-04-25T01:41:41;9.60;1.00
32215;DHT22;18708;53.124;23.190;2023-04-25T01:44:07;9.50;1.00
32215;DHT22;18708;53.124;23.190;2023-04-25T01:46:33;9.60;1.00
32215;DHT22;18708;53.124;23.190;2023-04-25T01:48:59;9.60;8.80
32215;DHT22;18708;53.124;23.190;2023-04-25T01:51:25;9.60;78.10
32215;DHT22;18708;53.124;23.190;2023-04-25T01:53:51;9.50;96.50
32215;DHT22;18708;53.124;23.190;2023-04-25T01:56:18;9.60;99.90
32215;DHT22;18708;53.124;23.190;2023-04-25T01:58:46;9.50;99.90
32215;DHT22;18708;53.124;23.190;2023-04-25T02:01:12;9.60;99.90
32215;DHT22;18708;53.124;23.190;2023-04-25T02:03:37;9.60;99.90
32215;DHT22;18708;53.124;23.190;2023-04-25T02:06:03;9.60;99.90
32215;DHT22;18708;53.124;23.190;2023-04-25T02:08:29;9.60;99.90
32215;DHT22;18708;53.124;23.190;2023-04-25T02:10:55;9.60;99.90
32215;DHT22;18708;53.124;23.190;2023-04-25T02:13:21;9.70;99.90
32215;DHT22;18708;53.124;23.190;2023-04-25T02:15:47;9.70;1.00
32215;DHT22;18708;53.124;23.190;2023-04-25T02:18:14;9.70;99.90
32215;DHT22;18708;53.124;23.190;2023-04-25T02:20:42;9.70;99.90
32215;DHT22;18708;53.124;23.190;2023-04-25T02:23:08;9.70;99.90
32215;DHT22;18708;53.124;23.190;2023-04-25T02:25:33;9.70;99.90
32215;DHT22;18708;53.124;23.190;2023-04-25T02:27:59;9.70;99.90
32215;DHT22;18708;53.124;23.190;2023-04-25T02:30:25;9.70;99.90
32215;DHT22;18708;53.124;23.190;2023-04-25T02:32:53;9.70;99.90
32215;DHT22;18708;53.124;23.190;2023-04-25T02:35:19;9.70;99.90
32215;DHT22;18708;53.124;23.190;2023-04-25T02:37:45;9.60;99.90
32215;DHT22;18708;53.124;23.190;2023-04-25T02:40:11;9.60;1.00
32215;DHT22;18708;53.124;23.190;2023-04-25T02:42:36;9.60;1.00
32215;DHT22;18708;53.124;23.190;2023-04-25T02:45:02;9.60;1.00
32215;DHT22;18708;53.124;23.190;2023-04-25T02:47:29;9.60;1.00
32215;DHT22;18708;53.124;23.190;2023-04-25T02:49:54;9.50;1.00
32215;DHT22;18708;53.124;23.190;2023-04-25T02:52:20;9.50;1.00
32215;DHT22;18708;53.124;23.190;2023-04-25T02:54:46;9.50;1.00
32215;DHT22;18708;53.124;23.190;2023-04-25T02:57:12;9.50;1.00
32215;DHT22;18708;53.124;23.190;2023-04-25T02:59:38;9.40;99.90
32215;DHT22;18708;53.124;23.190;2023-04-25T03:02:04;9.40;99.90
32215;DHT22;18708;53.124;23.190;2023-04-25T03:04:29;9.40;99.90
32215;DHT22;18708;53.124;23.190;2023-04-25T03:06:55;9.30;1.00
32215;DHT22;18708;53.124;23.190;2023-04-25T03:09:21;9.30;1.00
32215;DHT22;18708;53.124;23.190;2023-04-25T03:11:46;9.20;1.00
32215;DHT22;18708;53.124;23.190;2023-04-25T03:14:13;9.20;1.00
32215;DHT22;18708;53.124;23.190;2023-04-25T03:16:39;9.10;99.90
32215;DHT22;18708;53.124;23.190;2023-04-25T03:19:05;9.10;99.90
32215;DHT22;18708;53.124;23.190;2023-04-25T03:21:35;9.10;99.90
32215;DHT22;18708;53.124;23.190;2023-04-25T03:24:02;9.00;1.00
32215;DHT22;18708;53.124;23.190;2023-04-25T03:26:28;9.00;1.00
32215;DHT22;18708;53.124;23.190;2023-04-25T03:28:54;9.00;1.00
32215;DHT22;18708;53.124;23.190;2023-04-25T03:31:20;8.90;1.00
32215;DHT22;18708;53.124;23.190;2023-04-25T03:33:45;8.90;1.00
32215;DHT22;18708;53.124;23.190;2023-04-25T03:36:11;8.80;99.90
32215;DHT22;18708;53.124;23.190;2023-04-25T03:38:36;8.80;99.90
32215;DHT22;18708;53.124;23.190;2023-04-25T03:41:02;8.80;1.00
32215;DHT22;18708;53.124;23.190;2023-04-25T03:43:28;8.80;99.90
32215;DHT22;18708;53.124;23.190;2023-04-25T03:45:54;8.80;1.00
32215;DHT22;18708;53.124;23.190;2023-04-25T03:48:20;8.80;1.00
32215;DHT22;18708;53.124;23.190;2023-04-25T03:50:52;8.80;1.00
32215;DHT22;18708;53.124;23.190;2023-04-25T03:53:17;8.80;1.00
32215;DHT22;18708;53.124;23.190;2023-04-25T03:55:43;8.80;1.00
32215;DHT22;18708;53.124;23.190;2023-04-25T03:58:09;8.80;1.00
32215;DHT22;18708;53.124;23.190;2023-04-25T04:00:35;8.90;1.00
32215;DHT22;18708;53.124;23.190;2023-04-25T04:03:00;8.90;1.00
32215;DHT22;18708;53.124;23.190;2023-04-25T04:05:26;9.00;99.90
32215;DHT22;18708;53.124;23.190;2023-04-25T04:07:53;9.00;99.90
32215;DHT22;18708;53.124;23.190;2023-04-25T04:10:19;9.10;99.90
32215;DHT22;18708;53.124;23.190;2023-04-25T04:12:44;9.10;47.90
32215;DHT22;18708;53.124;23.190;2023-04-25T04:15:10;9.20;1.00
32215;DHT22;18708;53.124;23.190;2023-04-25T04:17:37;9.20;1.00
32215;DHT22;18708;53.124;23.190;2023-04-25T04:20:03;9.30;1.00
32215;DHT22;18708;53.124;23.190;2023-04-25T04:22:29;9.40;1.00
32215;DHT22;18708;53.124;23.190;2023-04-25T04:24:55;9.40;1.00
32215;DHT22;18708;53.124;23.190;2023-04-25T04:27:22;9.50;1.00
32215;DHT22;18708;53.124;23.190;2023-04-25T04:29:49;9.60;99.90
32215;DHT22;18708;53.124;23.190;2023-04-25T04:32:17;9.60;99.90
32215;DHT22;18708;53.124;23.190;2023-04-25T04:34:42;9.70;99.90
32215;DHT22;18708;53.124;23.190;2023-04-25T04:37:08;9.70;99.90
32215;DHT22;18708;53.124;23.190;2023-04-25T04:39:36;9.80;1.00
32215;DHT22;18708;53.124;23.190;2023-04-25T04:42:02;9.80;1.00
32215;DHT22;18708;53.124;23.190;2023-04-25T04:44:29;9.90;1.00
32215;DHT22;18708;53.124;23.190;2023-04-25T04:46:54;10.00;1.00
32215;DHT22;18708;53.124;23.190;2023-04-25T04:49:21;10.00;1.00
32215;DHT22;18708;53.124;23.190;2023-04-25T04:51:47;10.10;1.00
32215;DHT22;18708;53.124;23.190;2023-04-25T04:54:13;10.10;1.00
32215;DHT22;18708;53.124;23.190;2023-04-25T04:56:38;10.10;1.00
32215;DHT22;18708;53.124;23.190;2023-04-25T04:59:06;10.10;1.00
32215;DHT22;18708;53.124;23.190;2023-04-25T05:01:32;10.10;1.00
32215;DHT22;18708;53.124;23.190;2023-04-25T05:03:58;10.20;1.00
32215;DHT22;18708;53.124;23.190;2023-04-25T05:06:28;10.10;1.00
32215;DHT22;18708;53.124;23.190;2023-04-25T05:08:57;10.10;1.00
32215;DHT22;18708;53.124;23.190;2023-04-25T05:11:24;10.00;1.00
32215;DHT22;18708;53.124;23.190;2023-04-25T05:13:51;10.20;1.00
32215;DHT22;18708;53.124;23.190;2023-04-25T05:16:17;10.30;1.00
32215;DHT22;18708;53.124;23.190;2023-04-25T05:18:43;10.30;99.90
32215;DHT22;18708;53.124;23.190;2023-04-25T05:21:08;10.20;99.90
32215;DHT22;18708;53.124;23.190;2023-04-25T05:23:34;10.20;99.90
32215;DHT22;18708;53.124;23.190;2023-04-25T05:26:00;10.30;1.00
32215;DHT22;18708;53.124;23.190;2023-04-25T05:28:26;10.50;99.90
32215;DHT22;18708;53.124;23.190;2023-04-25T05:30:51;10.60;99.90
32215;DHT22;18708;53.124;23.190;2023-04-25T05:33:18;10.70;99.90
32215;DHT22;18708;53.124;23.190;2023-04-25T05:35:44;10.70;99.90
32215;DHT22;18708;53.124;23.190;2023-04-25T05:38:10;10.90;99.90
32215;DHT22;18708;53.124;23.190;2023-04-25T05:40:36;11.00;12.20
32215;DHT22;18708;53.124;23.190;2023-04-25T05:43:01;11.20;5.20
32215;DHT22;18708;53.124;23.190;2023-04-25T05:45:29;11.30;1.00
32215;DHT22;18708;53.124;23.190;2023-04-25T05:47:55;11.30;1.00
32215;DHT22;18708;53.124;23.190;2023-04-25T05:50:21;11.40;1.00
32215;DHT22;18708;53.124;23.190;2023-04-25T05:52:46;11.50;1.00
32215;DHT22;18708;53.124;23.190;2023-04-25T05:55:12;11.60;1.00
32215;DHT22;18708;53.124;23.190;2023-04-25T05:57:38;11.80;1.00
32215;DHT22;18708;53.124;23.190;2023-04-25T06:00:08;12.00;1.00
32215;DHT22;18708;53.124;23.190;2023-04-25T06:02:34;12.30;99.90
32215;DHT22;18708;53.124;23.190;2023-04-25T06:05:00;12.40;99.90
32215;DHT22;18708;53.124;23.190;2023-04-25T06:07:29;12.80;99.90
32215;DHT22;18708;53.124;23.190;2023-04-25T06:09:58;13.20;99.90
32215;DHT22;18708;53.124;23.190;2023-04-25T06:12:23;13.30;28.50
32215;DHT22;18708;53.124;23.190;2023-04-25T06:14:49;13.50;1.00
32215;DHT22;18708;53.124;23.190;2023-04-25T06:17:15;13.50;1.00
32215;DHT22;18708;53.124;23.190;2023-04-25T06:19:40;13.50;1.00
32215;DHT22;18708;53.124;23.190;2023-04-25T06:22:07;13.60;1.00
32215;DHT22;18708;53.124;23.190;2023-04-25T06:24:33;13.50;1.00
32215;DHT22;18708;53.124;23.190;2023-04-25T06:26:58;13.90;1.00
32215;DHT22;18708;53.124;23.190;2023-04-25T06:29:24;14.20;1.00
32215;DHT22;18708;53.124;23.190;2023-04-25T06:31:52;14.20;1.00
32215;DHT22;18708;53.124;23.190;2023-04-25T06:34:18;14.50;1.00
32215;DHT22;18708;53.124;23.190;2023-04-25T06:36:46;14.60;1.00
32215;DHT22;18708;53.124;23.190;2023-04-25T06:39:11;14.90;1.00
32215;DHT22;18708;53.124;23.190;2023-04-25T06:41:37;14.70;1.00
32215;DHT22;18708;53.124;23.190;2023-04-25T06:44:02;14.50;1.00
32215;DHT22;18708;53.124;23.190;2023-04-25T06:46:28;15.00;1.00
32215;DHT22;18708;53.124;23.190;2023-04-25T06:48:54;15.60;1.00
32215;DHT22;18708;53.124;23.190;2023-04-25T06:51:19;16.00;1.00
32215;DHT22;18708;53.124;23.190;2023-04-25T06:53:45;16.00;99.90
32215;DHT22;18708;53.124;23.190;2023-04-25T06:56:11;15.60;99.90
32215;DHT22;18708;53.124;23.190;2023-04-25T06:58:36;15.80;99.90
32215;DHT22;18708;53.124;23.190;2023-04-25T07:01:02;15.80;99.90
32215;DHT22;18708;53.124;23.190;2023-04-25T07:03:28;16.60;99.90
32215;DHT22;18708;53.124;23.190;2023-04-25T07:05:54;16.60;99.90
32215;DHT22;18708;53.124;23.190;2023-04-25T07:08:20;16.90;99.90
32215;DHT22;18708;53.124;23.190;2023-04-25T07:10:46;16.80;99.90
32215;DHT22;18708;53.124;23.190;2023-04-25T07:13:12;17.60;99.90
32215;DHT22;18708;53.124;23.190;2023-04-25T07:15:38;17.80;99.90
32215;DHT22;18708;53.124;23.190;2023-04-25T07:18:03;16.80;99.90
32215;DHT22;18708;53.124;23.190;2023-04-25T07:20:29;16.80;99.90
32215;DHT22;18708;53.124;23.190;2023-04-25T07:22:56;17.40;99.90
32215;DHT22;18708;53.124;23.190;2023-04-25T07:25:22;17.20;99.90
32215;DHT22;18708;53.124;23.190;2023-04-25T07:27:48;17.30;99.90
32215;DHT22;18708;53.124;23.190;2023-04-25T07:30:14;17.10;99.90
32215;DHT22;18708;53.124;23.190;2023-04-25T07:32:40;17.10;99.90
32215;DHT22;18708;53.124;23.190;2023-04-25T07:35:06;17.60;99.90
32215;DHT22;18708;53.124;23.190;2023-04-25T07:37:33;17.80;99.90
32215;DHT22;18708;53.124;23.190;2023-04-25T07:39:59;18.20;99.90
32215;DHT22;18708;53.124;23.190;2023-04-25T07:42:25;18.40;95.10
32215;DHT22;18708;53.124;23.190;2023-04-25T07:44:50;18.00;24.20
32215;DHT22;18708;53.124;23.190;2023-04-25T07:47:17;18.40;12.40
32215;DHT22;18708;53.124;23.190;2023-04-25T07:49:44;18.10;1.00
32215;DHT22;18708;53.124;23.190;2023-04-25T07:52:10;18.80;14.00
32215;DHT22;18708;53.124;23.190;2023-04-25T07:54:36;18.30;1.00
32215;DHT22;18708;53.124;23.190;2023-04-25T07:57:02;18.60;1.00
32215;DHT22;18708;53.124;23.190;2023-04-25T07:59:28;19.70;1.00
32215;DHT22;18708;53.124;23.190;2023-04-25T08:01:53;18.40;1.00
32215;DHT22;18708;53.124;23.190;2023-04-25T08:04:19;17.50;1.00
32215;DHT22;18708;53.124;23.190;2023-04-25T08:06:45;17.50;2.00
32215;DHT22;18708;53.124;23.190;2023-04-25T08:09:11;18.00;11.20
32215;DHT22;18708;53.124;23.190;2023-04-25T08:11:37;18.60;1.00
32215;DHT22;18708;53.124;23.190;2023-04-25T08:14:02;18.40;1.00
32215;DHT22;18708;53.124;23.190;2023-04-25T08:16:28;18.70;1.00
32215;DHT22;18708;53.124;23.190;2023-04-25T08:18:54;18.10;1.00
32215;DHT22;18708;53.124;23.190;2023-04-25T08:21:20;17.80;1.00
32215;DHT22;18708;53.124;23.190;2023-04-25T08:23:45;17.00;1.00
32215;DHT22;18708;53.124;23.190;2023-04-25T08:26:12;16.40;19.90
32215;DHT22;18708;53.124;23.190;2023-04-25T08:28:37;16.70;35.00
32215;DHT22;18708;53.124;23.190;2023-04-25T08:31:03;16.80;32.40
32215;DHT22;18708;53.124;23.190;2023-04-25T08:33:29;16.70;29.50
32215;DHT22;18708;53.124;23.190;2023-04-25T08:35:55;17.00;37.80
32215;DHT22;18708;53.124;23.190;2023-04-25T08:38:21;16.70;31.70
32215;DHT22;18708;53.124;23.190;2023-04-25T08:40:50;16.80;40.70
32215;DHT22;18708;53.124;23.190;2023-04-25T08:43:19;16.50;41.70
32215;DHT22;18708;53.124;23.190;2023-04-25T08:45:46;16.60;64.60
32215;DHT22;18708;53.124;23.190;2023-04-25T08:48:16;16.60;55.50
32215;DHT22;18708;53.124;23.190;2023-04-25T08:50:50;16.40;85.60
32215;DHT22;18708;53.124;23.190;2023-04-25T08:53:17;17.00;96.40
32215;DHT22;18708;53.124;23.190;2023-04-25T08:55:46;17.40;64.30
32215;DHT22;18708;53.124;23.190;2023-04-25T08:58:13;18.00;36.50
32215;DHT22;18708;53.124;23.190;2023-04-25T09:00:39;18.80;41.80
32215;DHT22;18708;53.124;23.190;2023-04-25T09:03:07;17.70;1.00
32215;DHT22;18708;53.124;23.190;2023-04-25T09:05:34;18.00;13.50
32215;DHT22;18708;53.124;23.190;2023-04-25T09:08:01;18.90;11.40
32215;DHT22;18708;53.124;23.190;2023-04-25T09:10:27;19.10;1.00
32215;DHT22;18708;53.124;23.190;2023-04-25T09:15:29;20.00;1.00
32215;DHT22;18708;53.124;23.190;2023-04-25T09:17:59;20.70;1.00
32215;DHT22;18708;53.124;23.190;2023-04-25T09:20:25;21.20;1.00
32215;DHT22;18708;53.124;23.190;2023-04-25T09:23:11;20.50;1.00
32215;DHT22;18708;53.124;23.190;2023-04-25T09:25:37;20.70;1.00
32215;DHT22;18708;53.124;23.190;2023-04-25T09:28:06;21.20;1.00
32215;DHT22;18708;53.124;23.190;2023-04-25T09:30:35;21.40;1.00
32215;DHT22;18708;53.124;23.190;2023-04-25T09:33:10;21.90;1.00
32215;DHT22;18708;53.124;23.190;2023-04-25T09:35:44;20.20;1.00
32215;DHT22;18708;53.124;23.190;2023-04-25T09:38:14;19.90;1.00
32215;DHT22;18708;53.124;23.190;2023-04-25T09:40:43;20.20;1.00
32215;DHT22;18708;53.124;23.190;2023-04-25T09:43:29;21.20;1.00
32215;DHT22;18708;53.124;23.190;2023-04-25T09:45:55;21.00;1.00
32215;DHT22;18708;53.124;23.190;2023-04-25T09:48:25;20.70;1.00
32215;DHT22;18708;53.124;23.190;2023-04-25T09:51:10;20.50;1.00
32215;DHT22;18708;53.124;23.190;2023-04-25T09:53:40;21.00;1.00
32215;DHT22;18708;53.124;23.190;2023-04-25T09:56:08;20.80;1.00
32215;DHT22;18708;53.124;23.190;2023-04-25T09:58:36;21.00;1.00
32215;DHT22;18708;53.124;23.190;2023-04-25T10:01:06;21.00;1.00
32215;DHT22;18708;53.124;23.190;2023-04-25T10:03:34;21.50;1.00
32215;DHT22;18708;53.124;23.190;2023-04-25T10:06:02;23.00;1.00
32215;DHT22;18708;53.124;23.190;2023-04-25T10:08:35;22.80;1.00
32215;DHT22;18708;53.124;23.190;2023-04-25T10:11:06;23.60;1.00
32215;DHT22;18708;53.124;23.190;2023-04-25T10:13:33;23.90;1.00
32215;DHT22;18708;53.124;23.190;2023-04-25T10:16:04;24.80;1.00
32215;DHT22;18708;53.124;23.190;2023-04-25T10:18:31;25.00;1.00
32215;DHT22;18708;53.124;23.190;2023-04-25T10:21:02;24.60;1.00
32215;DHT22;18708;53.124;23.190;2023-04-25T10:23:30;25.10;1.00
32215;DHT22;18708;53.124;23.190;2023-04-25T10:25:57;25.70;1.00
32215;DHT22;18708;53.124;23.190;2023-04-25T10:28:26;26.30;1.00
32215;DHT22;18708;53.124;23.190;2023-04-25T10:31:07;24.10;1.00
32215;DHT22;18708;53.124;23.190;2023-04-25T10:33:37;24.00;1.00
32215;DHT22;18708;53.124;23.190;2023-04-25T10:36:14;24.20;1.00
32215;DHT22;18708;53.124;23.190;2023-04-25T10:38:42;24.00;1.00
32215;DHT22;18708;53.124;23.190;2023-04-25T10:41:09;24.20;1.00
32215;DHT22;18708;53.124;23.190;2023-04-25T10:43:43;24.40;1.00
32215;DHT22;18708;53.124;23.190;2023-04-25T10:46:24;23.30;1.00
32215;DHT22;18708;53.124;23.190;2023-04-25T10:51:33;23.40;1.00
32215;DHT22;18708;53.124;23.190;2023-04-25T10:54:04;23.40;1.00
32215;DHT22;18708;53.124;23.190;2023-04-25T10:56:31;23.80;1.00
32215;DHT22;18708;53.124;23.190;2023-04-25T10:59:15;23.10;1.00
32215;DHT22;18708;53.124;23.190;2023-04-25T11:01:46;22.20;1.00
32215;DHT22;18708;53.124;23.190;2023-04-25T11:04:29;21.80;1.00
32215;DHT22;18708;53.124;23.190;2023-04-25T11:09:33;21.50;1.00
32215;DHT22;18708;53.124;23.190;2023-04-25T11:11:59;21.00;1.00
32215;DHT22;18708;53.124;23.190;2023-04-25T11:14:26;21.30;1.00
32215;DHT22;18708;53.124;23.190;2023-04-25T11:17:01;21.10;1.00
32215;DHT22;18708;53.124;23.190;2023-04-25T11:19:29;20.60;1.00
32215;DHT22;18708;53.124;23.190;2023-04-25T11:21:59;21.00;1.00
32215;DHT22;18708;53.124;23.190;2023-04-25T11:24:43;21.60;1.00
32215;DHT22;18708;53.124;23.190;2023-04-25T11:27:10;22.30;1.00
32215;DHT22;18708;53.124;23.190;2023-04-25T11:29:36;21.50;1.00
32215;DHT22;18708;53.124;23.190;2023-04-25T11:32:04;21.00;1.00
32215;DHT22;18708;53.124;23.190;2023-04-25T11:34:32;20.70;1.00
32215;DHT22;18708;53.124;23.190;2023-04-25T11:36:58;20.70;1.00
32215;DHT22;18708;53.124;23.190;2023-04-25T11:39:26;21.00;1.00
32215;DHT22;18708;53.124;23.190;2023-04-25T11:41:52;22.20;1.00
32215;DHT22;18708;53.124;23.190;2023-04-25T11:44:19;22.60;1.00
32215;DHT22;18708;53.124;23.190;2023-04-25T11:46:45;22.90;1.00
32215;DHT22;18708;53.124;23.190;2023-04-25T11:49:14;22.90;1.00
32215;DHT22;18708;53.124;23.190;2023-04-25T11:51:45;24.10;1.00
32215;DHT22;18708;53.124;23.190;2023-04-25T11:54:12;24.30;1.00
32215;DHT22;18708;53.124;23.190;2023-04-25T11:56:42;22.90;1.00
32215;DHT22;18708;53.124;23.190;2023-04-25T11:59:08;23.00;1.00
32215;DHT22;18708;53.124;23.190;2023-04-25T12:01:36;23.10;1.00
32215;DHT22;18708;53.124;23.190;2023-04-25T12:04:17;23.80;1.00
32215;DHT22;18708;53.124;23.190;2023-04-25T12:06:43;23.40;1.00
32215;DHT22;18708;53.124;23.190;2023-04-25T12:09:12;22.30;1.00
32215;DHT22;18708;53.124;23.190;2023-04-25T12:12:02;21.70;1.00
32215;DHT22;18708;53.124;23.190;2023-04-25T12:14:33;20.90;1.00
32215;DHT22;18708;53.124;23.190;2023-04-25T12:17:00;20.80;1.00
32215;DHT22;18708;53.124;23.190;2023-04-25T12:19:27;20.30;1.00
32215;DHT22;18708;53.124;23.190;2023-04-25T12:21:56;19.50;1.00
32215;DHT22;18708;53.124;23.190;2023-04-25T12:24:24;19.50;1.00
32215;DHT22;18708;53.124;23.190;2023-04-25T12:29:21;19.20;1.00
32215;DHT22;18708;53.124;23.190;2023-04-25T12:31:48;18.90;1.00
32215;DHT22;18708;53.124;23.190;2023-04-25T12:34:14;19.10;1.00
32215;DHT22;18708;53.124;23.190;2023-04-25T12:36:40;19.10;1.00
32215;DHT22;18708;53.124;23.190;2023-04-25T12:39:06;19.40;1.00
32215;DHT22;18708;53.124;23.190;2023-04-25T12:41:32;19.20;1.00
32215;DHT22;18708;53.124;23.190;2023-04-25T12:43:58;19.00;1.00
32215;DHT22;18708;53.124;23.190;2023-04-25T12:46:24;18.50;1.00
32215;DHT22;18708;53.124;23.190;2023-04-25T12:48:50;18.70;1.00
32215;DHT22;18708;53.124;23.190;2023-04-25T12:51:15;18.90;1.00
32215;DHT22;18708;53.124;23.190;2023-04-25T12:53:41;18.40;1.00
32215;DHT22;18708;53.124;23.190;2023-04-25T12:56:08;18.00;1.00
32215;DHT22;18708;53.124;23.190;2023-04-25T12:58:33;17.70;1.00
32215;DHT22;18708;53.124;23.190;2023-04-25T13:00:59;17.40;1.00
32215;DHT22;18708;53.124;23.190;2023-04-25T13:03:27;16.90;1.00
32215;DHT22;18708;53.124;23.190;2023-04-25T13:05:53;16.60;1.00
32215;DHT22;18708;53.124;23.190;2023-04-25T13:08:19;16.50;1.00
32215;DHT22;18708;53.124;23.190;2023-04-25T13:10:45;16.20;1.00
32215;DHT22;18708;53.124;23.190;2023-04-25T13:13:12;15.90;1.00
32215;DHT22;18708;53.124;23.190;2023-04-25T13:15:38;15.70;1.00
32215;DHT22;18708;53.124;23.190;2023-04-25T13:18:04;15.80;1.00
32215;DHT22;18708;53.124;23.190;2023-04-25T13:20:31;15.70;1.00
32215;DHT22;18708;53.124;23.190;2023-04-25T13:22:57;15.60;1.00
32215;DHT22;18708;53.124;23.190;2023-04-25T13:25:23;15.30;1.00
32215;DHT22;18708;53.124;23.190;2023-04-25T13:27:48;15.00;1.00
32215;DHT22;18708;53.124;23.190;2023-04-25T13:30:14;14.80;99.90
32215;DHT22;18708;53.124;23.190;2023-04-25T13:32:40;14.80;99.90
32215;DHT22;18708;53.124;23.190;2023-04-25T13:35:09;14.90;1.00
32215;DHT22;18708;53.124;23.190;2023-04-25T13:37:35;14.90;1.00
32215;DHT22;18708;53.124;23.190;2023-04-25T13:40:03;15.00;1.00
32215;DHT22;18708;53.124;23.190;2023-04-25T13:42:31;15.00;1.00
32215;DHT22;18708;53.124;23.190;2023-04-25T13:44:56;15.00;1.00
32215;DHT22;18708;53.124;23.190;2023-04-25T13:47:22;14.90;1.00
32215;DHT22;18708;53.124;23.190;2023-04-25T13:49:49;14.70;1.00
32215;DHT22;18708;53.124;23.190;2023-04-25T13:52:15;14.50;1.00
32215;DHT22;18708;53.124;23.190;2023-04-25T13:54:43;14.50;1.00
32215;DHT22;18708;53.124;23.190;2023-04-25T13:57:09;14.60;99.90
32215;DHT22;18708;53.124;23.190;2023-04-25T13:59:36;14.70;1.00
32215;DHT22;18708;53.124;23.190;2023-04-25T14:02:02;14.70;1.00
32215;DHT22;18708;53.124;23.190;2023-04-25T14:04:28;14.70;1.00
32215;DHT22;18708;53.124;23.190;2023-04-25T14:06:54;14.70;1.00
32215;DHT22;18708;53.124;23.190;2023-04-25T14:09:20;14.70;1.00
32215;DHT22;18708;53.124;23.190;2023-04-25T14:11:51;14.80;1.00
32215;DHT22;18708;53.124;23.190;2023-04-25T14:14:18;14.90;99.90
32215;DHT22;18708;53.124;23.190;2023-04-25T14:16:43;15.00;33.50
32215;DHT22;18708;53.124;23.190;2023-04-25T14:19:09;15.00;1.00
32215;DHT22;18708;53.124;23.190;2023-04-25T14:21:35;15.00;1.00
32215;DHT22;18708;53.124;23.190;2023-04-25T14:24:00;15.00;1.00
32215;DHT22;18708;53.124;23.190;2023-04-25T14:26:26;15.00;1.00
32215;DHT22;18708;53.124;23.190;2023-04-25T14:28:54;15.10;1.00
32215;DHT22;18708;53.124;23.190;2023-04-25T14:31:20;15.10;1.00
32215;DHT22;18708;53.124;23.190;2023-04-25T14:33:46;15.20;1.00
32215;DHT22;18708;53.124;23.190;2023-04-25T14:36:12;15.10;1.00
32215;DHT22;18708;53.124;23.190;2023-04-25T14:38:37;15.20;1.00
32215;DHT22;18708;53.124;23.190;2023-04-25T14:41:03;15.30;1.00
32215;DHT22;18708;53.124;23.190;2023-04-25T14:43:29;15.40;1.00
32215;DHT22;18708;53.124;23.190;2023-04-25T14:45:55;15.50;1.00
32215;DHT22;18708;53.124;23.190;2023-04-25T14:48:20;15.30;1.00
32215;DHT22;18708;53.124;23.190;2023-04-25T14:50:46;15.40;1.00
32215;DHT22;18708;53.124;23.190;2023-04-25T14:53:12;15.40;1.00
32215;DHT22;18708;53.124;23.190;2023-04-25T14:55:38;15.50;1.00
32215;DHT22;18708;53.124;23.190;2023-04-25T14:58:04;15.60;99.90
32215;DHT22;18708;53.124;23.190;2023-04-25T15:00:30;15.60;99.90
32215;DHT22;18708;53.124;23.190;2023-04-25T15:02:57;15.70;99.90
32215;DHT22;18708;53.124;23.190;2023-04-25T15:05:23;15.60;99.90
32215;DHT22;18708;53.124;23.190;2023-04-25T15:07:49;15.60;99.90
32215;DHT22;18708;53.124;23.190;2023-04-25T15:10:17;15.50;99.90
32215;DHT22;18708;53.124;23.190;2023-04-25T15:12:43;15.50;99.90
32215;DHT22;18708;53.124;23.190;2023-04-25T15:15:10;15.40;99.90
32215;DHT22;18708;53.124;23.190;2023-04-25T15:17:41;15.30;99.90
32215;DHT22;18708;53.124;23.190;2023-04-25T15:20:09;15.30;99.90
32215;DHT22;18708;53.124;23.190;2023-04-25T15:22:36;15.20;99.90
32215;DHT22;18708;53.124;23.190;2023-04-25T15:25:02;15.10;99.90
32215;DHT22;18708;53.124;23.190;2023-04-25T15:27:28;15.10;99.90
32215;DHT22;18708;53.124;23.190;2023-04-25T15:29:54;15.00;99.90
32215;DHT22;18708;53.124;23.190;2023-04-25T15:32:20;14.90;99.90
32215;DHT22;18708;53.124;23.190;2023-04-25T15:34:46;14.90;99.90
32215;DHT22;18708;53.124;23.190;2023-04-25T15:37:14;14.90;1.00
32215;DHT22;18708;53.124;23.190;2023-04-25T15:39:40;14.80;1.00